Ocean Sapphire — VRKL8 — position and weather

sailwx.info

Track history (hours):
 
Tides and Currents Weather Stations Pressure Air Temp Water Temp Dewpoint Dewpoint Depression Visibility Wind Speed Wind Dir Waves Ship Positions

Ocean Sapphire

Last reported at 2014-Jul-03 04:07 UTC. Time now 2014-Jul-24 20:04 UTC.
Position S 28°50' E 032°20'.
Warning: this ship's position is 21 days out of date.

Length 229 m; draft 7.7 m.

Type: Cargo ship. MMSI: 477065400.

Date/timePositionNaut miles runAvg speedWind from/ knotsBaromVisibWave heightAir tempDewpointWater temp
2014-Jul-03 04:07S 28°50' E 032°20'7 9.2
2014-Jul-03 03:19S 28°51' E 032°12'8 0.6
2014-Jul-02 13:14S 28°49' E 032°03'0 0.0
2014-Jul-02 07:32S 28°49' E 032°03'0 0.0
2014-Jul-02 06:32S 28°49' E 032°03'0 0.0
2014-Jul-02 05:32S 28°49' E 032°03'0 0.0
2014-Jul-02 04:31S 28°49' E 032°03'0 0.0
2014-Jul-02 03:20S 28°49' E 032°03'0 0.0
2014-Jul-02 02:14S 28°49' E 032°03'0 0.0
2014-Jul-02 00:14S 28°49' E 032°03'0 0.0
2014-Jul-01 22:31S 28°49' E 032°03'8 1.0
2014-Jul-01 14:33S 28°55' E 032°09'3 3.0
2014-Jul-01 13:33S 28°58' E 032°07'0 0.0
2014-Jul-01 12:27S 28°58' E 032°07'0 0.0
2014-Jul-01 11:32S 28°58' E 032°07'0 0.0
2014-Jul-01 10:27S 28°58' E 032°07'0 0.0
2014-Jul-01 09:33S 28°58' E 032°07'0 0.0
2014-Jul-01 08:14S 28°58' E 032°07'0 0.0
2014-Jul-01 07:32S 28°58' E 032°07'0 0.0
2014-Jul-01 06:32S 28°58' E 032°07'0 0.0
2014-Jul-01 05:32S 28°58' E 032°07'0 0.0
2014-Jul-01 04:32S 28°58' E 032°07'0 0.0
2014-Jul-01 03:26S 28°58' E 032°07'0 0.0
2014-Jul-01 02:32S 28°58' E 032°07'0 0.0
2014-Jul-01 01:33S 28°58' E 032°07'0 0.0
2014-Jul-01 00:32S 28°58' E 032°07'0 0.0
2014-Jun-30 23:26S 28°58' E 032°07'0 0.0
2014-Jun-30 22:14S 28°58' E 032°07'0 0.0
2014-Jun-30 21:32S 28°58' E 032°07'0 0.0
2014-Jun-30 20:26S 28°58' E 032°07'0 0.0
2014-Jun-30 19:20S 28°58' E 032°07'0 0.0
2014-Jun-30 18:26S 28°58' E 032°07'0 0.0
2014-Jun-30 17:32S 28°58' E 032°07'0 0.0
2014-Jun-30 16:20S 28°58' E 032°07'0 0.0
2014-Jun-30 15:32S 28°58' E 032°07'0 0.0
2014-Jun-30 14:26S 28°58' E 032°07'0 0.0
2014-Jun-30 12:08S 28°58' E 032°07'0 0.1
2014-Jun-30 11:32S 28°58' E 032°07'0 0.0
2014-Jun-30 04:32S 28°58' E 032°07'0 0.0
2014-Jun-30 03:32S 28°58' E 032°07'0 0.0
2014-Jun-30 02:32S 28°58' E 032°07'0 0.0
2014-Jun-30 01:32S 28°58' E 032°07'0 0.0
2014-Jun-30 00:26S 28°58' E 032°07'0 0.0
2014-Jun-29 23:32S 28°58' E 032°07'0 0.0
2014-Jun-29 22:26S 28°58' E 032°07'0 0.0
2014-Jun-29 21:32S 28°58' E 032°07'0 0.0
2014-Jun-29 20:32S 28°58' E 032°07'0 0.0
2014-Jun-29 19:32S 28°58' E 032°07'0 0.0
2014-Jun-29 18:20S 28°58' E 032°07'0 0.0
2014-Jun-29 17:32S 28°58' E 032°07'0 0.0
2014-Jun-29 16:14S 28°58' E 032°07'0 0.0
2014-Jun-29 15:32S 28°58' E 032°07'0 0.0
2014-Jun-29 14:26S 28°58' E 032°07'0 0.0
2014-Jun-29 13:26S 28°58' E 032°07'0 0.0
2014-Jun-29 12:26S 28°58' E 032°07'  
2014-Jun-26 14:32S 28°58' E 032°07'0 0.0
2014-Jun-26 05:32S 28°58' E 032°07'0 0.0
2014-Jun-26 04:32S 28°58' E 032°07'0 0.0
2014-Jun-26 03:26S 28°58' E 032°07'0 0.0
2014-Jun-26 02:32S 28°58' E 032°07'0 0.0
2014-Jun-26 01:32S 28°58' E 032°07'0 0.0
2014-Jun-26 00:32S 28°58' E 032°07'0 0.0
2014-Jun-25 23:32S 28°58' E 032°07'0 0.0
2014-Jun-25 21:20S 28°58' E 032°07'0 0.0
2014-Jun-25 19:32S 28°58' E 032°07'0 0.0
2014-Jun-25 18:32S 28°58' E 032°07'0 0.0
2014-Jun-25 17:32S 28°58' E 032°07'0 0.0
2014-Jun-25 16:32S 28°58' E 032°07'0 0.0
2014-Jun-25 15:26S 28°58' E 032°07'0 0.0
2014-Jun-25 14:32S 28°58' E 032°07'0 0.0
2014-Jun-25 13:32S 28°58' E 032°07'0 0.0
2014-Jun-25 12:26S 28°58' E 032°07'0 0.0
2014-Jun-25 11:32S 28°58' E 032°07'0 0.1
2014-Jun-25 10:32S 28°58' E 032°07'0 0.0
2014-Jun-25 06:32S 28°58' E 032°07'0 0.0
2014-Jun-25 04:14S 28°58' E 032°07'0 0.1
2014-Jun-25 03:32S 28°58' E 032°07'0 0.0
2014-Jun-25 02:26S 28°58' E 032°07'0 0.0
2014-Jun-25 01:32S 28°58' E 032°07'0 0.0
2014-Jun-25 00:32S 28°58' E 032°07'0 0.0
2014-Jun-24 23:32S 28°58' E 032°07'0 0.0
2014-Jun-24 20:26S 28°58' E 032°07'0 0.0
2014-Jun-24 18:26S 28°58' E 032°07'0 0.0
2014-Jun-24 17:32S 28°58' E 032°07'0 0.0
2014-Jun-24 16:32S 28°58' E 032°07'0 0.0
2014-Jun-24 15:20S 28°58' E 032°07'0 0.0
2014-Jun-24 11:32S 28°58' E 032°07'0 0.0
2014-Jun-24 10:32S 28°58' E 032°07'0 0.0
2014-Jun-24 09:32S 28°58' E 032°07'0 0.1
2014-Jun-24 08:32S 28°57' E 032°07'0 0.1
2014-Jun-24 07:32S 28°57' E 032°07'0 0.0
2014-Jun-24 06:26S 28°57' E 032°07'0 0.0
2014-Jun-24 05:32S 28°57' E 032°07'0 0.0
2014-Jun-24 04:32S 28°57' E 032°07'0 0.0
2014-Jun-24 03:32S 28°57' E 032°07'0 0.0
2014-Jun-24 02:08S 28°58' E 032°07'0 0.0
2014-Jun-24 01:32S 28°58' E 032°07'0 0.0
2014-Jun-24 00:32S 28°58' E 032°07'0 0.0
2014-Jun-23 23:32S 28°58' E 032°07'0 0.0
2014-Jun-23 22:32S 28°58' E 032°07'0 0.0
2014-Jun-23 21:32S 28°58' E 032°07'0 0.1
2014-Jun-23 20:32S 28°58' E 032°07'0 0.0
2014-Jun-23 19:26S 28°58' E 032°07'0 0.0
2014-Jun-23 18:20S 28°58' E 032°07'0 0.0
2014-Jun-23 17:32S 28°58' E 032°07'0 0.0
2014-Jun-23 16:32S 28°58' E 032°07'0 0.0
2014-Jun-23 15:32S 28°58' E 032°07'0 0.0
2014-Jun-23 14:26S 28°58' E 032°07'0 0.0
2014-Jun-23 12:32S 28°58' E 032°07'0 0.0
2014-Jun-23 11:32S 28°58' E 032°07'0 0.0
2014-Jun-23 10:32S 28°58' E 032°07'0 0.0
2014-Jun-23 09:32S 28°58' E 032°07'0 0.0
2014-Jun-23 08:32S 28°58' E 032°07'0 0.0
2014-Jun-23 07:32S 28°58' E 032°07'0 0.0
2014-Jun-23 06:32S 28°58' E 032°07'0 0.0
2014-Jun-23 05:32S 28°58' E 032°07'0 0.0
2014-Jun-23 04:32S 28°58' E 032°07'  
Track history (hours):
 
Tides and Currents Weather Stations Pressure Air Temp Water Temp Dewpoint Dewpoint Depression Visibility Wind Speed Wind Dir Waves Ship Positions

Ocean Sapphire

Last reported at 2014-Jul-03 04:07 UTC. Time now 2014-Jul-24 20:04 UTC.
Position S 28°50' E 032°20'.
Warning: this ship's position is 21 days out of date.

Length 229 m; draft 7.7 m.

Type: Cargo ship. MMSI: 477065400.

Date/timePositionNaut miles runAvg speedWind from/ knotsBaromVisibWave heightAir tempDewpointWater temp
2014-Jul-03 04:07S 28°50' E 032°20'7 9.2
2014-Jul-03 03:19S 28°51' E 032°12'8 0.6
2014-Jul-02 13:14S 28°49' E 032°03'0 0.0
2014-Jul-02 07:32S 28°49' E 032°03'0 0.0
2014-Jul-02 06:32S 28°49' E 032°03'0 0.0
2014-Jul-02 05:32S 28°49' E 032°03'0 0.0
2014-Jul-02 04:31S 28°49' E 032°03'0 0.0
2014-Jul-02 03:20S 28°49' E 032°03'0 0.0
2014-Jul-02 02:14S 28°49' E 032°03'0 0.0
2014-Jul-02 00:14S 28°49' E 032°03'0 0.0
2014-Jul-01 22:31S 28°49' E 032°03'8 1.0
2014-Jul-01 14:33S 28°55' E 032°09'3 3.0
2014-Jul-01 13:33S 28°58' E 032°07'0 0.0
2014-Jul-01 12:27S 28°58' E 032°07'0 0.0
2014-Jul-01 11:32S 28°58' E 032°07'0 0.0
2014-Jul-01 10:27S 28°58' E 032°07'0 0.0
2014-Jul-01 09:33S 28°58' E 032°07'0 0.0
2014-Jul-01 08:14S 28°58' E 032°07'0 0.0
2014-Jul-01 07:32S 28°58' E 032°07'0 0.0
2014-Jul-01 06:32S 28°58' E 032°07'0 0.0
2014-Jul-01 05:32S 28°58' E 032°07'0 0.0
2014-Jul-01 04:32S 28°58' E 032°07'0 0.0
2014-Jul-01 03:26S 28°58' E 032°07'0 0.0
2014-Jul-01 02:32S 28°58' E 032°07'0 0.0
2014-Jul-01 01:33S 28°58' E 032°07'0 0.0
2014-Jul-01 00:32S 28°58' E 032°07'0 0.0
2014-Jun-30 23:26S 28°58' E 032°07'0 0.0
2014-Jun-30 22:14S 28°58' E 032°07'0 0.0
2014-Jun-30 21:32S 28°58' E 032°07'0 0.0
2014-Jun-30 20:26S 28°58' E 032°07'0 0.0
2014-Jun-30 19:20S 28°58' E 032°07'0 0.0
2014-Jun-30 18:26S 28°58' E 032°07'0 0.0
2014-Jun-30 17:32S 28°58' E 032°07'0 0.0
2014-Jun-30 16:20S 28°58' E 032°07'0 0.0
2014-Jun-30 15:32S 28°58' E 032°07'0 0.0
2014-Jun-30 14:26S 28°58' E 032°07'0 0.0
2014-Jun-30 12:08S 28°58' E 032°07'0 0.1
2014-Jun-30 11:32S 28°58' E 032°07'0 0.0
2014-Jun-30 04:32S 28°58' E 032°07'0 0.0
2014-Jun-30 03:32S 28°58' E 032°07'0 0.0
2014-Jun-30 02:32S 28°58' E 032°07'0 0.0
2014-Jun-30 01:32S 28°58' E 032°07'0 0.0
2014-Jun-30 00:26S 28°58' E 032°07'0 0.0
2014-Jun-29 23:32S 28°58' E 032°07'0 0.0
2014-Jun-29 22:26S 28°58' E 032°07'0 0.0
2014-Jun-29 21:32S 28°58' E 032°07'0 0.0
2014-Jun-29 20:32S 28°58' E 032°07'0 0.0
2014-Jun-29 19:32S 28°58' E 032°07'0 0.0
2014-Jun-29 18:20S 28°58' E 032°07'0 0.0
2014-Jun-29 17:32S 28°58' E 032°07'0 0.0
2014-Jun-29 16:14S 28°58' E 032°07'0 0.0
2014-Jun-29 15:32S 28°58' E 032°07'0 0.0
2014-Jun-29 14:26S 28°58' E 032°07'0 0.0
2014-Jun-29 13:26S 28°58' E 032°07'0 0.0
2014-Jun-29 12:26S 28°58' E 032°07'  
2014-Jun-26 14:32S 28°58' E 032°07'0 0.0
2014-Jun-26 05:32S 28°58' E 032°07'0 0.0
2014-Jun-26 04:32S 28°58' E 032°07'0 0.0
2014-Jun-26 03:26S 28°58' E 032°07'0 0.0
2014-Jun-26 02:32S 28°58' E 032°07'0 0.0
2014-Jun-26 01:32S 28°58' E 032°07'0 0.0
2014-Jun-26 00:32S 28°58' E 032°07'0 0.0
2014-Jun-25 23:32S 28°58' E 032°07'0 0.0
2014-Jun-25 21:20S 28°58' E 032°07'0 0.0
2014-Jun-25 19:32S 28°58' E 032°07'0 0.0
2014-Jun-25 18:32S 28°58' E 032°07'0 0.0
2014-Jun-25 17:32S 28°58' E 032°07'0 0.0
2014-Jun-25 16:32S 28°58' E 032°07'0 0.0
2014-Jun-25 15:26S 28°58' E 032°07'0 0.0
2014-Jun-25 14:32S 28°58' E 032°07'0 0.0
2014-Jun-25 13:32S 28°58' E 032°07'0 0.0
2014-Jun-25 12:26S 28°58' E 032°07'0 0.0
2014-Jun-25 11:32S 28°58' E 032°07'0 0.1
2014-Jun-25 10:32S 28°58' E 032°07'0 0.0
2014-Jun-25 06:32S 28°58' E 032°07'0 0.0
2014-Jun-25 04:14S 28°58' E 032°07'0 0.1
2014-Jun-25 03:32S 28°58' E 032°07'0 0.0
2014-Jun-25 02:26S 28°58' E 032°07'0 0.0
2014-Jun-25 01:32S 28°58' E 032°07'0 0.0
2014-Jun-25 00:32S 28°58' E 032°07'0 0.0
2014-Jun-24 23:32S 28°58' E 032°07'0 0.0
2014-Jun-24 20:26S 28°58' E 032°07'0 0.0
2014-Jun-24 18:26S 28°58' E 032°07'0 0.0
2014-Jun-24 17:32S 28°58' E 032°07'0 0.0
2014-Jun-24 16:32S 28°58' E 032°07'0 0.0
2014-Jun-24 15:20S 28°58' E 032°07'0 0.0
2014-Jun-24 11:32S 28°58' E 032°07'0 0.0
2014-Jun-24 10:32S 28°58' E 032°07'0 0.0
2014-Jun-24 09:32S 28°58' E 032°07'0 0.1
2014-Jun-24 08:32S 28°57' E 032°07'0 0.1
2014-Jun-24 07:32S 28°57' E 032°07'0 0.0
2014-Jun-24 06:26S 28°57' E 032°07'0 0.0
2014-Jun-24 05:32S 28°57' E 032°07'0 0.0
2014-Jun-24 04:32S 28°57' E 032°07'0 0.0
2014-Jun-24 03:32S 28°57' E 032°07'0 0.0
2014-Jun-24 02:08S 28°58' E 032°07'0 0.0
2014-Jun-24 01:32S 28°58' E 032°07'0 0.0
2014-Jun-24 00:32S 28°58' E 032°07'0 0.0
2014-Jun-23 23:32S 28°58' E 032°07'0 0.0
2014-Jun-23 22:32S 28°58' E 032°07'0 0.0
2014-Jun-23 21:32S 28°58' E 032°07'0 0.1
2014-Jun-23 20:32S 28°58' E 032°07'0 0.0
2014-Jun-23 19:26S 28°58' E 032°07'0 0.0
2014-Jun-23 18:20S 28°58' E 032°07'0 0.0
2014-Jun-23 17:32S 28°58' E 032°07'0 0.0
2014-Jun-23 16:32S 28°58' E 032°07'0 0.0
2014-Jun-23 15:32S 28°58' E 032°07'0 0.0
2014-Jun-23 14:26S 28°58' E 032°07'0 0.0
2014-Jun-23 12:32S 28°58' E 032°07'0 0.0
2014-Jun-23 11:32S 28°58' E 032°07'0 0.0
2014-Jun-23 10:32S 28°58' E 032°07'0 0.0
2014-Jun-23 09:32S 28°58' E 032°07'0 0.0
2014-Jun-23 08:32S 28°58' E 032°07'0 0.0
2014-Jun-23 07:32S 28°58' E 032°07'0 0.0
2014-Jun-23 06:32S 28°58' E 032°07'0 0.0
2014-Jun-23 05:32S 28°58' E 032°07'0 0.0
2014-Jun-23 04:32S 28°58' E 032°07'  

Dump ship's entire track history